sensor_id;sensor_type;location;lat;lon;timestamp;P1;durP1;ratioP1;P2;durP2;ratioP2
18217;SDS011;9234;49.344;11.120;2023-03-31T00:01:24;2.63;;;1.10;;
18217;SDS011;9234;49.344;11.120;2023-03-31T00:03:54;5.47;;;1.90;;
18217;SDS011;9234;49.344;11.120;2023-03-31T00:06:30;5.20;;;1.25;;
18217;SDS011;9234;49.344;11.120;2023-03-31T00:09:03;3.58;;;1.70;;
18217;SDS011;9234;49.344;11.120;2023-03-31T00:11:36;1.83;;;1.13;;
18217;SDS011;9234;49.344;11.120;2023-03-31T00:14:05;4.68;;;1.63;;
18217;SDS011;9234;49.344;11.120;2023-03-31T00:16:35;4.32;;;1.45;;
18217;SDS011;9234;49.344;11.120;2023-03-31T00:19:08;5.03;;;1.58;;
18217;SDS011;9234;49.344;11.120;2023-03-31T00:21:43;3.28;;;1.40;;
18217;SDS011;9234;49.344;11.120;2023-03-31T00:24:13;7.32;;;1.80;;
18217;SDS011;9234;49.344;11.120;2023-03-31T00:26:42;3.42;;;1.10;;
18217;SDS011;9234;49.344;11.120;2023-03-31T00:29:11;6.17;;;1.83;;
18217;SDS011;9234;49.344;11.120;2023-03-31T00:31:40;7.53;;;1.95;;
18217;SDS011;9234;49.344;11.120;2023-03-31T00:34:10;2.63;;;1.30;;
18217;SDS011;9234;49.344;11.120;2023-03-31T00:36:38;4.88;;;1.27;;
18217;SDS011;9234;49.344;11.120;2023-03-31T00:39:11;4.22;;;1.65;;
18217;SDS011;9234;49.344;11.120;2023-03-31T00:41:41;4.57;;;1.80;;
18217;SDS011;9234;49.344;11.120;2023-03-31T00:44:10;2.25;;;1.35;;
18217;SDS011;9234;49.344;11.120;2023-03-31T00:46:45;3.72;;;1.30;;
18217;SDS011;9234;49.344;11.120;2023-03-31T00:49:23;6.95;;;1.50;;
18217;SDS011;9234;49.344;11.120;2023-03-31T00:51:58;2.63;;;1.25;;
18217;SDS011;9234;49.344;11.120;2023-03-31T00:54:31;3.25;;;1.75;;
18217;SDS011;9234;49.344;11.120;2023-03-31T00:57:01;3.60;;;2.00;;
18217;SDS011;9234;49.344;11.120;2023-03-31T00:59:33;4.35;;;1.30;;
18217;SDS011;9234;49.344;11.120;2023-03-31T01:02:06;4.40;;;1.60;;
18217;SDS011;9234;49.344;11.120;2023-03-31T01:04:38;3.72;;;1.20;;
18217;SDS011;9234;49.344;11.120;2023-03-31T01:07:16;2.20;;;1.37;;
18217;SDS011;9234;49.344;11.120;2023-03-31T01:09:51;3.72;;;1.48;;
18217;SDS011;9234;49.344;11.120;2023-03-31T01:12:26;3.85;;;1.73;;
18217;SDS011;9234;49.344;11.120;2023-03-31T01:14:54;4.07;;;1.33;;
18217;SDS011;9234;49.344;11.120;2023-03-31T01:17:22;5.50;;;1.57;;
18217;SDS011;9234;49.344;11.120;2023-03-31T01:19:58;2.57;;;1.47;;
18217;SDS011;9234;49.344;11.120;2023-03-31T01:29:12;3.27;;;1.27;;
18217;SDS011;9234;49.344;11.120;2023-03-31T01:32:23;3.03;;;1.58;;
18217;SDS011;9234;49.344;11.120;2023-03-31T01:35:34;3.50;;;1.60;;
18217;SDS011;9234;49.344;11.120;2023-03-31T01:38:51;3.42;;;1.60;;
18217;SDS011;9234;49.344;11.120;2023-03-31T01:41:57;4.83;;;1.97;;
18217;SDS011;9234;49.344;11.120;2023-03-31T01:44:39;4.05;;;1.40;;
18217;SDS011;9234;49.344;11.120;2023-03-31T01:47:14;3.92;;;1.45;;
18217;SDS011;9234;49.344;11.120;2023-03-31T01:49:50;5.35;;;1.92;;
18217;SDS011;9234;49.344;11.120;2023-03-31T01:52:31;4.50;;;1.90;;
18217;SDS011;9234;49.344;11.120;2023-03-31T01:55:11;7.20;;;1.40;;
18217;SDS011;9234;49.344;11.120;2023-03-31T01:57:49;3.87;;;1.60;;
18217;SDS011;9234;49.344;11.120;2023-03-31T02:00:24;4.87;;;1.70;;
18217;SDS011;9234;49.344;11.120;2023-03-31T02:03:02;4.07;;;2.15;;
18217;SDS011;9234;49.344;11.120;2023-03-31T02:05:39;4.30;;;1.53;;
18217;SDS011;9234;49.344;11.120;2023-03-31T02:08:14;5.22;;;2.00;;
18217;SDS011;9234;49.344;11.120;2023-03-31T02:10:49;4.47;;;1.77;;
18217;SDS011;9234;49.344;11.120;2023-03-31T02:13:21;2.13;;;1.60;;
18217;SDS011;9234;49.344;11.120;2023-03-31T02:15:53;4.93;;;1.80;;
18217;SDS011;9234;49.344;11.120;2023-03-31T02:18:28;2.35;;;1.42;;
18217;SDS011;9234;49.344;11.120;2023-03-31T02:21:04;3.25;;;1.80;;
18217;SDS011;9234;49.344;11.120;2023-03-31T02:23:35;4.73;;;1.80;;
18217;SDS011;9234;49.344;11.120;2023-03-31T02:26:06;4.28;;;1.42;;
18217;SDS011;9234;49.344;11.120;2023-03-31T02:28:41;3.93;;;1.77;;
18217;SDS011;9234;49.344;11.120;2023-03-31T02:31:12;7.40;;;2.00;;
18217;SDS011;9234;49.344;11.120;2023-03-31T02:33:54;4.15;;;1.67;;
18217;SDS011;9234;49.344;11.120;2023-03-31T02:36:23;2.17;;;1.50;;
18217;SDS011;9234;49.344;11.120;2023-03-31T02:38:53;4.57;;;1.80;;
18217;SDS011;9234;49.344;11.120;2023-03-31T02:41:26;3.63;;;1.85;;
18217;SDS011;9234;49.344;11.120;2023-03-31T02:43:56;4.40;;;1.83;;
18217;SDS011;9234;49.344;11.120;2023-03-31T02:46:25;6.77;;;1.60;;
18217;SDS011;9234;49.344;11.120;2023-03-31T02:48:59;4.87;;;1.67;;
18217;SDS011;9234;49.344;11.120;2023-03-31T02:51:44;4.25;;;1.80;;
18217;SDS011;9234;49.344;11.120;2023-03-31T02:54:53;6.22;;;1.98;;
18217;SDS011;9234;49.344;11.120;2023-03-31T02:58:28;7.88;;;1.65;;
18217;SDS011;9234;49.344;11.120;2023-03-31T03:01:37;5.97;;;2.35;;
18217;SDS011;9234;49.344;11.120;2023-03-31T03:04:36;5.80;;;2.03;;
18217;SDS011;9234;49.344;11.120;2023-03-31T03:07:29;5.95;;;2.33;;
18217;SDS011;9234;49.344;11.120;2023-03-31T03:10:11;6.75;;;1.60;;
18217;SDS011;9234;49.344;11.120;2023-03-31T03:12:51;3.20;;;1.65;;
18217;SDS011;9234;49.344;11.120;2023-03-31T03:15:30;5.93;;;2.17;;
18217;SDS011;9234;49.344;11.120;2023-03-31T03:18:04;4.68;;;1.42;;
18217;SDS011;9234;49.344;11.120;2023-03-31T03:20:33;4.18;;;2.05;;
18217;SDS011;9234;49.344;11.120;2023-03-31T03:23:01;3.40;;;1.90;;
18217;SDS011;9234;49.344;11.120;2023-03-31T03:25:30;5.70;;;3.15;;
18217;SDS011;9234;49.344;11.120;2023-03-31T03:27:59;5.53;;;2.38;;
18217;SDS011;9234;49.344;11.120;2023-03-31T03:30:27;6.15;;;2.80;;
18217;SDS011;9234;49.344;11.120;2023-03-31T03:32:57;8.27;;;3.17;;
18217;SDS011;9234;49.344;11.120;2023-03-31T03:35:25;7.65;;;3.28;;
18217;SDS011;9234;49.344;11.120;2023-03-31T03:37:54;4.43;;;2.20;;
18217;SDS011;9234;49.344;11.120;2023-03-31T03:40:22;4.70;;;2.45;;
18217;SDS011;9234;49.344;11.120;2023-03-31T03:42:50;4.47;;;2.20;;
18217;SDS011;9234;49.344;11.120;2023-03-31T03:45:18;2.45;;;1.77;;
18217;SDS011;9234;49.344;11.120;2023-03-31T03:47:48;4.63;;;2.10;;
18217;SDS011;9234;49.344;11.120;2023-03-31T03:50:16;8.60;;;2.70;;
18217;SDS011;9234;49.344;11.120;2023-03-31T03:52:44;5.85;;;1.95;;
18217;SDS011;9234;49.344;11.120;2023-03-31T03:55:12;4.90;;;2.10;;
18217;SDS011;9234;49.344;11.120;2023-03-31T03:57:43;5.15;;;2.75;;
18217;SDS011;9234;49.344;11.120;2023-03-31T04:00:11;5.03;;;2.35;;
18217;SDS011;9234;49.344;11.120;2023-03-31T04:02:41;6.25;;;2.30;;
18217;SDS011;9234;49.344;11.120;2023-03-31T04:05:11;5.80;;;2.65;;
18217;SDS011;9234;49.344;11.120;2023-03-31T04:07:39;5.32;;;2.70;;
18217;SDS011;9234;49.344;11.120;2023-03-31T04:10:08;8.40;;;2.63;;
18217;SDS011;9234;49.344;11.120;2023-03-31T04:12:36;4.40;;;2.25;;
18217;SDS011;9234;49.344;11.120;2023-03-31T04:15:05;3.90;;;2.20;;
18217;SDS011;9234;49.344;11.120;2023-03-31T04:17:34;4.15;;;2.17;;
18217;SDS011;9234;49.344;11.120;2023-03-31T04:20:04;6.28;;;1.90;;
18217;SDS011;9234;49.344;11.120;2023-03-31T04:22:36;5.10;;;1.52;;
18217;SDS011;9234;49.344;11.120;2023-03-31T04:25:07;3.33;;;2.07;;
18217;SDS011;9234;49.344;11.120;2023-03-31T04:27:41;4.75;;;1.95;;
18217;SDS011;9234;49.344;11.120;2023-03-31T04:30:12;4.60;;;1.77;;
18217;SDS011;9234;49.344;11.120;2023-03-31T04:32:48;4.13;;;1.90;;
18217;SDS011;9234;49.344;11.120;2023-03-31T04:35:19;6.47;;;2.25;;
18217;SDS011;9234;49.344;11.120;2023-03-31T04:37:49;5.07;;;1.73;;
18217;SDS011;9234;49.344;11.120;2023-03-31T04:40:24;7.00;;;2.17;;
18217;SDS011;9234;49.344;11.120;2023-03-31T04:42:52;8.40;;;2.30;;
18217;SDS011;9234;49.344;11.120;2023-03-31T04:45:21;8.10;;;2.20;;
18217;SDS011;9234;49.344;11.120;2023-03-31T04:47:49;3.93;;;2.03;;
18217;SDS011;9234;49.344;11.120;2023-03-31T04:50:17;5.15;;;1.85;;
18217;SDS011;9234;49.344;11.120;2023-03-31T04:52:45;5.30;;;2.35;;
18217;SDS011;9234;49.344;11.120;2023-03-31T04:55:15;7.72;;;2.13;;
18217;SDS011;9234;49.344;11.120;2023-03-31T04:57:44;3.22;;;2.10;;
18217;SDS011;9234;49.344;11.120;2023-03-31T05:00:12;4.80;;;1.83;;
18217;SDS011;9234;49.344;11.120;2023-03-31T05:02:42;6.80;;;1.90;;
18217;SDS011;9234;49.344;11.120;2023-03-31T05:05:10;3.35;;;1.73;;
18217;SDS011;9234;49.344;11.120;2023-03-31T05:07:39;6.60;;;2.60;;
18217;SDS011;9234;49.344;11.120;2023-03-31T05:10:08;6.55;;;2.60;;
18217;SDS011;9234;49.344;11.120;2023-03-31T05:12:38;5.68;;;2.20;;
18217;SDS011;9234;49.344;11.120;2023-03-31T05:15:07;7.60;;;2.03;;
18217;SDS011;9234;49.344;11.120;2023-03-31T05:17:36;2.90;;;1.88;;
18217;SDS011;9234;49.344;11.120;2023-03-31T05:20:05;6.25;;;2.05;;
18217;SDS011;9234;49.344;11.120;2023-03-31T05:22:35;3.95;;;1.80;;
18217;SDS011;9234;49.344;11.120;2023-03-31T05:25:09;5.63;;;2.33;;
18217;SDS011;9234;49.344;11.120;2023-03-31T05:27:41;6.35;;;2.45;;
18217;SDS011;9234;49.344;11.120;2023-03-31T05:30:09;4.82;;;2.85;;
18217;SDS011;9234;49.344;11.120;2023-03-31T05:32:38;5.55;;;2.17;;
18217;SDS011;9234;49.344;11.120;2023-03-31T05:35:07;6.75;;;2.53;;
18217;SDS011;9234;49.344;11.120;2023-03-31T05:37:36;4.35;;;2.33;;
18217;SDS011;9234;49.344;11.120;2023-03-31T05:40:05;5.00;;;2.22;;
18217;SDS011;9234;49.344;11.120;2023-03-31T05:42:36;3.25;;;2.10;;
18217;SDS011;9234;49.344;11.120;2023-03-31T05:45:06;7.35;;;1.92;;
18217;SDS011;9234;49.344;11.120;2023-03-31T05:47:35;6.10;;;1.90;;
18217;SDS011;9234;49.344;11.120;2023-03-31T05:50:04;4.85;;;2.20;;
18217;SDS011;9234;49.344;11.120;2023-03-31T05:52:34;3.45;;;2.10;;
18217;SDS011;9234;49.344;11.120;2023-03-31T05:55:03;5.68;;;2.17;;
18217;SDS011;9234;49.344;11.120;2023-03-31T05:57:32;8.40;;;2.25;;
18217;SDS011;9234;49.344;11.120;2023-03-31T06:00:00;3.97;;;2.10;;
18217;SDS011;9234;49.344;11.120;2023-03-31T06:02:32;5.72;;;1.73;;
18217;SDS011;9234;49.344;11.120;2023-03-31T06:05:01;4.40;;;1.50;;
18217;SDS011;9234;49.344;11.120;2023-03-31T06:07:29;4.35;;;2.72;;
18217;SDS011;9234;49.344;11.120;2023-03-31T06:09:58;5.70;;;2.30;;
18217;SDS011;9234;49.344;11.120;2023-03-31T06:12:26;4.50;;;2.00;;
18217;SDS011;9234;49.344;11.120;2023-03-31T06:14:54;4.78;;;2.35;;
18217;SDS011;9234;49.344;11.120;2023-03-31T06:17:22;4.22;;;2.22;;
18217;SDS011;9234;49.344;11.120;2023-03-31T06:19:52;5.22;;;2.42;;
18217;SDS011;9234;49.344;11.120;2023-03-31T06:22:21;6.82;;;2.65;;
18217;SDS011;9234;49.344;11.120;2023-03-31T06:24:49;4.90;;;2.35;;
18217;SDS011;9234;49.344;11.120;2023-03-31T06:27:17;6.85;;;2.47;;
18217;SDS011;9234;49.344;11.120;2023-03-31T06:29:45;5.93;;;2.83;;
18217;SDS011;9234;49.344;11.120;2023-03-31T06:32:15;9.52;;;2.65;;
18217;SDS011;9234;49.344;11.120;2023-03-31T06:34:43;9.15;;;2.92;;
18217;SDS011;9234;49.344;11.120;2023-03-31T06:37:13;6.40;;;2.97;;
18217;SDS011;9234;49.344;11.120;2023-03-31T06:39:41;8.00;;;2.60;;
18217;SDS011;9234;49.344;11.120;2023-03-31T06:42:10;6.85;;;2.72;;
18217;SDS011;9234;49.344;11.120;2023-03-31T06:44:39;7.40;;;3.13;;
18217;SDS011;9234;49.344;11.120;2023-03-31T06:47:07;10.65;;;3.35;;
18217;SDS011;9234;49.344;11.120;2023-03-31T06:49:36;7.93;;;2.92;;
18217;SDS011;9234;49.344;11.120;2023-03-31T06:52:04;6.00;;;3.55;;
18217;SDS011;9234;49.344;11.120;2023-03-31T06:54:34;7.78;;;3.30;;
18217;SDS011;9234;49.344;11.120;2023-03-31T06:57:02;5.35;;;2.90;;
18217;SDS011;9234;49.344;11.120;2023-03-31T06:59:30;6.43;;;3.00;;
18217;SDS011;9234;49.344;11.120;2023-03-31T07:01:58;9.27;;;3.90;;
18217;SDS011;9234;49.344;11.120;2023-03-31T07:04:27;8.88;;;3.58;;
18217;SDS011;9234;49.344;11.120;2023-03-31T07:06:56;10.63;;;4.78;;
18217;SDS011;9234;49.344;11.120;2023-03-31T07:09:25;14.15;;;5.88;;
18217;SDS011;9234;49.344;11.120;2023-03-31T07:11:54;14.18;;;5.30;;
18217;SDS011;9234;49.344;11.120;2023-03-31T07:14:22;7.97;;;3.65;;
18217;SDS011;9234;49.344;11.120;2023-03-31T07:16:51;7.47;;;3.95;;
18217;SDS011;9234;49.344;11.120;2023-03-31T07:19:19;7.03;;;3.50;;
18217;SDS011;9234;49.344;11.120;2023-03-31T07:21:48;6.35;;;3.67;;
18217;SDS011;9234;49.344;11.120;2023-03-31T07:24:16;8.65;;;4.00;;
18217;SDS011;9234;49.344;11.120;2023-03-31T07:26:45;6.55;;;4.35;;
18217;SDS011;9234;49.344;11.120;2023-03-31T07:29:14;8.63;;;4.03;;
18217;SDS011;9234;49.344;11.120;2023-03-31T07:31:43;7.40;;;4.22;;
18217;SDS011;9234;49.344;11.120;2023-03-31T07:34:13;11.10;;;4.53;;
18217;SDS011;9234;49.344;11.120;2023-03-31T07:36:42;11.02;;;4.35;;
18217;SDS011;9234;49.344;11.120;2023-03-31T07:39:10;8.40;;;4.10;;
18217;SDS011;9234;49.344;11.120;2023-03-31T07:41:38;9.65;;;4.28;;
18217;SDS011;9234;49.344;11.120;2023-03-31T07:44:07;8.00;;;4.40;;
18217;SDS011;9234;49.344;11.120;2023-03-31T07:46:38;9.52;;;4.47;;
18217;SDS011;9234;49.344;11.120;2023-03-31T07:49:07;8.77;;;5.65;;
18217;SDS011;9234;49.344;11.120;2023-03-31T07:51:35;6.00;;;4.40;;
18217;SDS011;9234;49.344;11.120;2023-03-31T07:54:03;9.80;;;5.05;;
18217;SDS011;9234;49.344;11.120;2023-03-31T07:56:32;11.02;;;5.50;;
18217;SDS011;9234;49.344;11.120;2023-03-31T07:59:00;11.45;;;6.72;;
18217;SDS011;9234;49.344;11.120;2023-03-31T08:01:28;20.20;;;12.43;;
18217;SDS011;9234;49.344;11.120;2023-03-31T08:03:58;8.00;;;4.95;;
18217;SDS011;9234;49.344;11.120;2023-03-31T08:06:27;10.13;;;5.57;;
18217;SDS011;9234;49.344;11.120;2023-03-31T08:08:55;9.82;;;5.05;;
18217;SDS011;9234;49.344;11.120;2023-03-31T08:11:25;7.30;;;4.77;;
18217;SDS011;9234;49.344;11.120;2023-03-31T08:13:53;7.20;;;5.22;;
18217;SDS011;9234;49.344;11.120;2023-03-31T08:16:22;7.00;;;5.03;;
18217;SDS011;9234;49.344;11.120;2023-03-31T08:18:50;10.68;;;5.45;;
18217;SDS011;9234;49.344;11.120;2023-03-31T08:21:19;7.93;;;5.90;;
18217;SDS011;9234;49.344;11.120;2023-03-31T08:23:52;8.95;;;5.35;;
18217;SDS011;9234;49.344;11.120;2023-03-31T08:26:20;10.40;;;6.47;;
18217;SDS011;9234;49.344;11.120;2023-03-31T08:28:51;9.88;;;6.35;;
18217;SDS011;9234;49.344;11.120;2023-03-31T08:31:19;11.98;;;6.97;;
18217;SDS011;9234;49.344;11.120;2023-03-31T08:33:52;11.95;;;8.35;;
18217;SDS011;9234;49.344;11.120;2023-03-31T08:36:22;11.15;;;5.40;;
18217;SDS011;9234;49.344;11.120;2023-03-31T08:38:52;9.88;;;6.32;;
18217;SDS011;9234;49.344;11.120;2023-03-31T08:41:26;12.90;;;7.22;;
18217;SDS011;9234;49.344;11.120;2023-03-31T08:44:12;11.20;;;5.70;;
18217;SDS011;9234;49.344;11.120;2023-03-31T08:46:48;13.77;;;6.88;;
18217;SDS011;9234;49.344;11.120;2023-03-31T08:49:21;10.02;;;5.97;;
18217;SDS011;9234;49.344;11.120;2023-03-31T08:51:54;10.23;;;4.70;;
18217;SDS011;9234;49.344;11.120;2023-03-31T08:54:28;10.30;;;5.50;;
18217;SDS011;9234;49.344;11.120;2023-03-31T08:57:02;10.23;;;5.15;;
18217;SDS011;9234;49.344;11.120;2023-03-31T08:59:39;8.00;;;4.47;;
18217;SDS011;9234;49.344;11.120;2023-03-31T09:02:10;7.07;;;4.30;;
18217;SDS011;9234;49.344;11.120;2023-03-31T09:08:36;8.32;;;5.18;;
18217;SDS011;9234;49.344;11.120;2023-03-31T09:11:09;8.63;;;5.13;;
18217;SDS011;9234;49.344;11.120;2023-03-31T09:13:50;8.32;;;4.68;;
18217;SDS011;9234;49.344;11.120;2023-03-31T09:16:44;8.68;;;5.15;;
18217;SDS011;9234;49.344;11.120;2023-03-31T09:19:23;9.25;;;4.68;;
18217;SDS011;9234;49.344;11.120;2023-03-31T09:22:02;5.93;;;4.50;;
18217;SDS011;9234;49.344;11.120;2023-03-31T09:24:45;5.50;;;3.50;;
18217;SDS011;9234;49.344;11.120;2023-03-31T09:27:21;5.88;;;3.65;;
18217;SDS011;9234;49.344;11.120;2023-03-31T09:29:57;29.73;;;23.45;;
18217;SDS011;9234;49.344;11.120;2023-03-31T09:32:30;8.60;;;5.80;;
18217;SDS011;9234;49.344;11.120;2023-03-31T09:35:00;5.97;;;3.85;;
18217;SDS011;9234;49.344;11.120;2023-03-31T09:37:42;6.07;;;3.70;;
18217;SDS011;9234;49.344;11.120;2023-03-31T09:40:15;4.35;;;3.38;;
18217;SDS011;9234;49.344;11.120;2023-03-31T09:42:46;4.25;;;3.30;;
18217;SDS011;9234;49.344;11.120;2023-03-31T09:45:20;5.68;;;2.92;;
18217;SDS011;9234;49.344;11.120;2023-03-31T09:47:49;5.85;;;3.47;;
18217;SDS011;9234;49.344;11.120;2023-03-31T09:50:21;3.97;;;2.80;;
18217;SDS011;9234;49.344;11.120;2023-03-31T09:52:52;4.25;;;2.70;;
18217;SDS011;9234;49.344;11.120;2023-03-31T09:55:27;5.57;;;3.00;;
18217;SDS011;9234;49.344;11.120;2023-03-31T09:58:11;2.90;;;2.50;;
18217;SDS011;9234;49.344;11.120;2023-03-31T10:00:41;3.95;;;2.35;;
18217;SDS011;9234;49.344;11.120;2023-03-31T10:03:24;3.08;;;1.80;;
18217;SDS011;9234;49.344;11.120;2023-03-31T10:05:55;2.60;;;1.90;;
18217;SDS011;9234;49.344;11.120;2023-03-31T10:08:26;3.28;;;2.10;;
18217;SDS011;9234;49.344;11.120;2023-03-31T10:11:07;7.05;;;2.22;;
18217;SDS011;9234;49.344;11.120;2023-03-31T10:13:40;2.88;;;2.25;;
18217;SDS011;9234;49.344;11.120;2023-03-31T10:16:21;3.88;;;1.80;;
18217;SDS011;9234;49.344;11.120;2023-03-31T10:18:54;3.35;;;1.25;;
18217;SDS011;9234;49.344;11.120;2023-03-31T10:21:38;2.88;;;1.52;;
18217;SDS011;9234;49.344;11.120;2023-03-31T10:24:09;4.18;;;1.30;;
18217;SDS011;9234;49.344;11.120;2023-03-31T10:26:39;3.97;;;1.63;;
18217;SDS011;9234;49.344;11.120;2023-03-31T10:29:09;3.70;;;1.60;;
18217;SDS011;9234;49.344;11.120;2023-03-31T10:31:42;3.53;;;1.63;;
18217;SDS011;9234;49.344;11.120;2023-03-31T10:34:11;4.13;;;1.85;;
18217;SDS011;9234;49.344;11.120;2023-03-31T10:36:44;3.03;;;1.38;;
18217;SDS011;9234;49.344;11.120;2023-03-31T10:39:16;4.28;;;1.38;;
18217;SDS011;9234;49.344;11.120;2023-03-31T10:41:49;3.90;;;1.48;;
18217;SDS011;9234;49.344;11.120;2023-03-31T10:44:29;5.10;;;1.80;;
18217;SDS011;9234;49.344;11.120;2023-03-31T10:47:04;3.70;;;2.00;;
18217;SDS011;9234;49.344;11.120;2023-03-31T10:49:44;4.60;;;1.50;;
18217;SDS011;9234;49.344;11.120;2023-03-31T10:52:19;4.03;;;1.60;;
18217;SDS011;9234;49.344;11.120;2023-03-31T10:54:51;3.10;;;1.33;;
18217;SDS011;9234;49.344;11.120;2023-03-31T10:57:27;2.58;;;1.48;;
18217;SDS011;9234;49.344;11.120;2023-03-31T11:00:15;2.40;;;1.20;;
18217;SDS011;9234;49.344;11.120;2023-03-31T11:06:11;4.82;;;1.65;;
18217;SDS011;9234;49.344;11.120;2023-03-31T11:08:51;4.32;;;1.60;;
18217;SDS011;9234;49.344;11.120;2023-03-31T11:11:42;2.70;;;1.10;;
18217;SDS011;9234;49.344;11.120;2023-03-31T11:14:30;2.15;;;1.00;;
18217;SDS011;9234;49.344;11.120;2023-03-31T11:17:15;3.03;;;0.93;;
18217;SDS011;9234;49.344;11.120;2023-03-31T11:19:59;2.88;;;0.82;;
18217;SDS011;9234;49.344;11.120;2023-03-31T11:22:43;2.35;;;1.05;;
18217;SDS011;9234;49.344;11.120;2023-03-31T11:25:22;3.17;;;1.27;;
18217;SDS011;9234;49.344;11.120;2023-03-31T11:28:09;5.35;;;1.35;;
18217;SDS011;9234;49.344;11.120;2023-03-31T11:31:15;3.40;;;0.90;;
18217;SDS011;9234;49.344;11.120;2023-03-31T11:34:02;2.83;;;1.30;;
18217;SDS011;9234;49.344;11.120;2023-03-31T11:40:39;3.95;;;1.27;;
18217;SDS011;9234;49.344;11.120;2023-03-31T11:43:23;2.30;;;0.75;;
18217;SDS011;9234;49.344;11.120;2023-03-31T11:45:59;4.55;;;1.05;;
18217;SDS011;9234;49.344;11.120;2023-03-31T11:48:37;1.50;;;0.70;;
18217;SDS011;9234;49.344;11.120;2023-03-31T11:51:13;2.00;;;0.80;;
18217;SDS011;9234;49.344;11.120;2023-03-31T11:53:47;2.78;;;1.00;;
18217;SDS011;9234;49.344;11.120;2023-03-31T11:56:19;2.85;;;0.90;;
18217;SDS011;9234;49.344;11.120;2023-03-31T11:58:53;2.47;;;0.80;;
18217;SDS011;9234;49.344;11.120;2023-03-31T12:01:27;1.95;;;1.00;;
18217;SDS011;9234;49.344;11.120;2023-03-31T12:04:05;2.63;;;0.70;;
18217;SDS011;9234;49.344;11.120;2023-03-31T12:06:49;0.30;;;0.20;;
18217;SDS011;9234;49.344;11.120;2023-03-31T12:09:29;1.25;;;0.30;;
18217;SDS011;9234;49.344;11.120;2023-03-31T12:12:11;2.08;;;0.30;;
18217;SDS011;9234;49.344;11.120;2023-03-31T12:14:47;2.47;;;0.50;;
18217;SDS011;9234;49.344;11.120;2023-03-31T12:17:22;0.85;;;0.35;;
18217;SDS011;9234;49.344;11.120;2023-03-31T12:19:57;2.20;;;0.40;;
18217;SDS011;9234;49.344;11.120;2023-03-31T12:22:33;1.33;;;0.55;;
18217;SDS011;9234;49.344;11.120;2023-03-31T12:25:10;2.38;;;0.40;;
18217;SDS011;9234;49.344;11.120;2023-03-31T12:27:40;2.40;;;0.40;;
18217;SDS011;9234;49.344;11.120;2023-03-31T12:30:16;1.73;;;0.65;;
18217;SDS011;9234;49.344;11.120;2023-03-31T12:32:58;2.00;;;0.93;;
18217;SDS011;9234;49.344;11.120;2023-03-31T12:35:36;4.32;;;0.75;;
18217;SDS011;9234;49.344;11.120;2023-03-31T12:38:32;4.30;;;0.90;;
18217;SDS011;9234;49.344;11.120;2023-03-31T12:41:14;3.78;;;0.80;;
18217;SDS011;9234;49.344;11.120;2023-03-31T12:43:59;1.90;;;0.80;;
18217;SDS011;9234;49.344;11.120;2023-03-31T12:46:47;2.47;;;1.00;;
18217;SDS011;9234;49.344;11.120;2023-03-31T12:49:42;4.53;;;1.30;;
18217;SDS011;9234;49.344;11.120;2023-03-31T12:52:43;2.85;;;0.70;;
18217;SDS011;9234;49.344;11.120;2023-03-31T13:01:07;3.88;;;1.20;;
18217;SDS011;9234;49.344;11.120;2023-03-31T13:03:44;2.80;;;0.90;;
18217;SDS011;9234;49.344;11.120;2023-03-31T13:06:50;4.50;;;1.10;;
18217;SDS011;9234;49.344;11.120;2023-03-31T13:12:25;5.07;;;0.73;;
18217;SDS011;9234;49.344;11.120;2023-03-31T13:14:58;6.47;;;1.00;;
18217;SDS011;9234;49.344;11.120;2023-03-31T13:17:32;3.25;;;0.63;;
18217;SDS011;9234;49.344;11.120;2023-03-31T13:20:16;3.67;;;1.20;;
18217;SDS011;9234;49.344;11.120;2023-03-31T13:23:01;3.88;;;0.75;;
18217;SDS011;9234;49.344;11.120;2023-03-31T13:25:39;3.17;;;1.40;;
18217;SDS011;9234;49.344;11.120;2023-03-31T13:28:15;5.13;;;1.80;;
18217;SDS011;9234;49.344;11.120;2023-03-31T13:31:00;1.63;;;0.70;;
18217;SDS011;9234;49.344;11.120;2023-03-31T13:33:32;3.03;;;0.95;;
18217;SDS011;9234;49.344;11.120;2023-03-31T13:36:13;3.67;;;0.95;;
18217;SDS011;9234;49.344;11.120;2023-03-31T13:39:26;5.82;;;1.23;;
18217;SDS011;9234;49.344;11.120;2023-03-31T13:42:45;5.90;;;1.33;;
18217;SDS011;9234;49.344;11.120;2023-03-31T13:45:53;3.47;;;1.25;;
18217;SDS011;9234;49.344;11.120;2023-03-31T13:48:48;3.90;;;1.35;;
18217;SDS011;9234;49.344;11.120;2023-03-31T13:51:33;3.72;;;1.42;;
18217;SDS011;9234;49.344;11.120;2023-03-31T14:01:23;3.13;;;1.48;;
18217;SDS011;9234;49.344;11.120;2023-03-31T14:04:29;2.50;;;0.93;;
18217;SDS011;9234;49.344;11.120;2023-03-31T14:07:37;3.75;;;0.82;;
18217;SDS011;9234;49.344;11.120;2023-03-31T14:10:21;4.10;;;0.70;;
18217;SDS011;9234;49.344;11.120;2023-03-31T14:13:03;2.83;;;0.85;;
18217;SDS011;9234;49.344;11.120;2023-03-31T14:15:34;2.75;;;1.00;;
18217;SDS011;9234;49.344;11.120;2023-03-31T14:18:08;2.30;;;0.88;;
18217;SDS011;9234;49.344;11.120;2023-03-31T14:20:44;2.97;;;0.82;;
18217;SDS011;9234;49.344;11.120;2023-03-31T14:23:39;1.13;;;0.55;;
18217;SDS011;9234;49.344;11.120;2023-03-31T14:26:21;3.85;;;1.60;;
18217;SDS011;9234;49.344;11.120;2023-03-31T14:29:13;5.68;;;1.23;;
18217;SDS011;9234;49.344;11.120;2023-03-31T14:31:55;2.67;;;0.68;;
18217;SDS011;9234;49.344;11.120;2023-03-31T14:34:40;2.05;;;0.90;;
18217;SDS011;9234;49.344;11.120;2023-03-31T14:37:20;2.95;;;1.02;;
18217;SDS011;9234;49.344;11.120;2023-03-31T14:39:50;4.28;;;1.48;;
18217;SDS011;9234;49.344;11.120;2023-03-31T14:42:22;4.80;;;0.90;;
18217;SDS011;9234;49.344;11.120;2023-03-31T14:44:56;2.63;;;0.63;;
18217;SDS011;9234;49.344;11.120;2023-03-31T14:47:28;2.33;;;0.52;;
18217;SDS011;9234;49.344;11.120;2023-03-31T14:49:59;2.53;;;0.80;;
18217;SDS011;9234;49.344;11.120;2023-03-31T14:52:33;2.63;;;0.57;;
18217;SDS011;9234;49.344;11.120;2023-03-31T14:55:01;2.35;;;0.68;;
18217;SDS011;9234;49.344;11.120;2023-03-31T14:57:31;3.33;;;0.70;;
18217;SDS011;9234;49.344;11.120;2023-03-31T15:00:03;3.70;;;0.98;;
18217;SDS011;9234;49.344;11.120;2023-03-31T15:02:40;1.35;;;0.90;;
18217;SDS011;9234;49.344;11.120;2023-03-31T15:05:18;1.70;;;0.65;;
18217;SDS011;9234;49.344;11.120;2023-03-31T15:07:55;2.55;;;0.50;;
18217;SDS011;9234;49.344;11.120;2023-03-31T15:10:24;1.23;;;0.45;;
18217;SDS011;9234;49.344;11.120;2023-03-31T15:13:06;1.60;;;0.65;;
18217;SDS011;9234;49.344;11.120;2023-03-31T15:15:36;1.98;;;0.50;;
18217;SDS011;9234;49.344;11.120;2023-03-31T15:18:04;1.35;;;0.50;;
18217;SDS011;9234;49.344;11.120;2023-03-31T15:20:38;2.40;;;0.50;;
18217;SDS011;9234;49.344;11.120;2023-03-31T15:23:18;2.83;;;0.68;;
18217;SDS011;9234;49.344;11.120;2023-03-31T15:25:51;2.15;;;0.57;;
18217;SDS011;9234;49.344;11.120;2023-03-31T15:28:24;2.90;;;0.70;;
18217;SDS011;9234;49.344;11.120;2023-03-31T15:30:58;3.67;;;0.82;;
18217;SDS011;9234;49.344;11.120;2023-03-31T15:33:36;3.92;;;0.65;;
18217;SDS011;9234;49.344;11.120;2023-03-31T15:36:09;4.93;;;1.48;;
18217;SDS011;9234;49.344;11.120;2023-03-31T15:38:39;2.58;;;0.63;;
18217;SDS011;9234;49.344;11.120;2023-03-31T15:41:10;1.98;;;0.85;;
18217;SDS011;9234;49.344;11.120;2023-03-31T15:43:45;4.10;;;0.80;;
18217;SDS011;9234;49.344;11.120;2023-03-31T15:46:18;4.38;;;1.08;;
18217;SDS011;9234;49.344;11.120;2023-03-31T15:48:53;3.85;;;1.40;;
18217;SDS011;9234;49.344;11.120;2023-03-31T15:51:24;4.68;;;1.58;;
18217;SDS011;9234;49.344;11.120;2023-03-31T15:53:59;3.97;;;1.02;;
18217;SDS011;9234;49.344;11.120;2023-03-31T15:56:28;2.35;;;0.80;;
18217;SDS011;9234;49.344;11.120;2023-03-31T15:59:03;1.63;;;0.65;;
18217;SDS011;9234;49.344;11.120;2023-03-31T16:01:33;4.97;;;0.80;;
18217;SDS011;9234;49.344;11.120;2023-03-31T16:04:10;2.60;;;0.80;;
18217;SDS011;9234;49.344;11.120;2023-03-31T16:06:43;5.38;;;0.63;;
18217;SDS011;9234;49.344;11.120;2023-03-31T16:09:16;2.17;;;0.60;;